Paglia Orba — FNIL — position and weather

sailwx.info

Track history (hours):
 
Tides and Currents Weather Stations Pressure Air Temp Water Temp Dewpoint Dewpoint Depression Visibility Wind Speed Wind Dir Waves Ship Positions

Paglia Orba

Last reported at 2018-Feb-23 08:39 UTC. Time now 2018-Feb-23 10:51 UTC.
Position N 43°18' E 005°22'.

Length 172 m; beam 31 m.

Type: Passenger vessel. MMSI: 227184000.

Date/timePositionNaut miles runAvg speedWind from/ knotsBaromVisibWave heightAir tempDewpointWater temp
2018-Feb-23 08:39N 43°18' E 005°22'0 0.0
2018-Feb-23 08:29N 43°18' E 005°22'0 0.0
2018-Feb-23 07:57N 43°18' E 005°22'0 0.0
2018-Feb-23 07:27N 43°18' E 005°22'0 0.0
2018-Feb-23 06:59N 43°18' E 005°22'0 0.0
2018-Feb-23 06:28N 43°18' E 005°22'0 0.0
2018-Feb-23 06:00N 43°18' E 005°22'3 6.3
2018-Feb-23 05:30N 43°16' E 005°19'7917.7
2018-Feb-23 01:01N 42°59' E 007°05'018.7
2018-Feb-23 01:00N 42°59' E 007°05'5 0.2
2018-Feb-21 23:57N 42°60' E 007°12'8218.7
2018-Feb-21 19:33N 43°10' E 005°20'119.9
2018-Feb-21 19:30N 43°11' E 005°19'714.7
2018-Feb-21 19:00N 43°18' E 005°22'0 0.0
2018-Feb-21 06:35N 43°18' E 005°22'0 0.0
2018-Feb-21 06:26N 43°18' E 005°22'0 0.5
2018-Feb-21 06:00N 43°18' E 005°22'5 9.0
2018-Feb-21 05:30N 43°14' E 005°18'8018.3
2018-Feb-21 01:09N 42°58' E 007°05'9018.3
2018-Feb-20 20:14N 43°04' E 009°08'13 0.8
2018-Feb-20 04:52N 43°04' E 009°25'9619.9
2018-Feb-20 00:04N 42°58' E 007°15'219.6
2018-Feb-19 23:57N 42°58' E 007°12'8518.7
2018-Feb-19 19:25N 43°13' E 005°18'716.9
2018-Feb-19 19:00N 43°20' E 005°18'2 3.9
2018-Feb-19 18:30N 43°20' E 005°21'0 0.0
2018-Feb-19 18:01N 43°20' E 005°21'0 0.0
2018-Feb-19 17:30N 43°20' E 005°21'0 0.0
2018-Feb-19 17:00N 43°20' E 005°21'0 0.0
2018-Feb-19 16:30N 43°20' E 005°21'0 0.0
2018-Feb-19 16:00N 43°20' E 005°21'0 0.0
2018-Feb-19 15:30N 43°20' E 005°21'0 0.0
2018-Feb-19 15:00N 43°20' E 005°21'0 0.0
2018-Feb-19 14:30N 43°20' E 005°21'0 0.0
2018-Feb-19 14:00N 43°20' E 005°21'0 0.0
2018-Feb-19 13:30N 43°20' E 005°21'0 0.0
2018-Feb-19 13:00N 43°20' E 005°21'0 0.0
2018-Feb-19 12:30N 43°20' E 005°21'0 0.0
2018-Feb-19 12:00N 43°20' E 005°21'0 0.0
2018-Feb-19 11:30N 43°20' E 005°21'0 0.0
2018-Feb-19 11:00N 43°20' E 005°21'0 0.0
2018-Feb-19 10:30N 43°20' E 005°21'0 0.0
2018-Feb-19 10:01N 43°20' E 005°21'0 0.0
2018-Feb-19 09:30N 43°20' E 005°21'0 0.0
2018-Feb-19 09:00N 43°20' E 005°21'0 0.0
2018-Feb-19 08:30N 43°20' E 005°21'0 0.0
2018-Feb-19 08:00N 43°20' E 005°21'0 0.0
2018-Feb-19 07:30N 43°20' E 005°21'0 0.0
2018-Feb-19 07:00N 43°20' E 005°21'0 0.0
2018-Feb-19 06:30N 43°20' E 005°21'0 0.0
2018-Feb-19 06:00N 43°20' E 005°21'1 2.6
2018-Feb-19 05:30N 43°19' E 005°19'8116.7
2018-Feb-19 00:38N 42°60' E 007°08'319.5
2018-Feb-19 00:29N 42°60' E 007°12'8419.1
2018-Feb-18 20:05N 43°04' E 009°06'219.6
2018-Feb-18 20:00N 43°04' E 009°08'1319.3
2018-Feb-18 19:21N 43°04' E 009°26'97 5.0
2018-Feb-17 23:50N 42°59' E 007°13'8517.3
2018-Feb-17 18:55N 43°13' E 005°18'715.8
2018-Feb-17 18:30N 43°20' E 005°18'2 4.3
2018-Feb-17 18:00N 43°20' E 005°21'0 0.0
2018-Feb-17 17:30N 43°20' E 005°21'0 0.0
2018-Feb-17 17:00N 43°20' E 005°21'0 0.0
2018-Feb-17 16:28N 43°20' E 005°21'0 0.0
2018-Feb-17 16:00N 43°20' E 005°21'0 0.0
2018-Feb-17 15:30N 43°20' E 005°21'0 0.0
2018-Feb-17 15:00N 43°20' E 005°21'0 0.0
2018-Feb-17 14:30N 43°20' E 005°21'0 0.0
2018-Feb-17 14:00N 43°20' E 005°21'0 0.0
2018-Feb-17 13:31N 43°20' E 005°21'0 0.0
2018-Feb-17 13:01N 43°20' E 005°21'0 0.0
2018-Feb-17 12:31N 43°20' E 005°21'0 0.0
2018-Feb-17 12:01N 43°20' E 005°21'0 0.0
2018-Feb-17 11:30N 43°20' E 005°21'0 0.0
2018-Feb-17 11:00N 43°20' E 005°21'0 0.0
2018-Feb-17 10:31N 43°20' E 005°21'0 0.0
2018-Feb-17 10:01N 43°20' E 005°21'0 0.0
2018-Feb-17 09:31N 43°20' E 005°21'0 0.0
2018-Feb-17 09:00N 43°20' E 005°21'0 0.0
2018-Feb-17 08:31N 43°20' E 005°21'0 0.0
2018-Feb-17 08:01N 43°20' E 005°21'0 0.0
2018-Feb-17 07:31N 43°20' E 005°21'0 0.0
2018-Feb-17 07:01N 43°20' E 005°21'0 0.0
2018-Feb-17 06:31N 43°20' E 005°21'0 0.0
2018-Feb-17 06:00N 43°20' E 005°21'2 4.0
2018-Feb-17 05:30N 43°21' E 005°18'815.1
2018-Feb-17 04:59N 43°13' E 005°18'8118.3
2018-Feb-17 00:34N 42°60' E 007°07'8718.6
2018-Feb-16 19:53N 43°04' E 009°06'83 4.1
2018-Feb-15 23:32N 42°58' E 007°13'220.0
2018-Feb-15 23:26N 42°58' E 007°10'8319.5
2018-Feb-15 19:11N 43°12' E 005°19'420.8
2018-Feb-15 19:00N 43°15' E 005°16'611.4
2018-Feb-15 18:30N 43°20' E 005°20'1 1.1
2018-Feb-15 18:00N 43°20' E 005°21'0 0.0
2018-Feb-15 17:28N 43°20' E 005°21'0 0.0
2018-Feb-15 16:59N 43°20' E 005°21'0 0.0
2018-Feb-15 16:30N 43°20' E 005°21'0 0.0
2018-Feb-15 10:04N 43°20' E 005°21'0 0.0
2018-Feb-15 10:01N 43°20' E 005°21'0 0.0
2018-Feb-15 09:30N 43°20' E 005°21'0 0.0
2018-Feb-15 09:00N 43°20' E 005°21'0 0.0
2018-Feb-15 08:29N 43°20' E 005°21'0 0.0
2018-Feb-15 08:00N 43°20' E 005°21'0 0.0
2018-Feb-15 07:31N 43°20' E 005°21'0 0.0
2018-Feb-15 07:01N 43°20' E 005°21'0 0.0
2018-Feb-15 06:30N 43°20' E 005°21'0 0.0
2018-Feb-15 06:01N 43°20' E 005°21'2 4.2
2018-Feb-15 05:30N 43°21' E 005°18'714.6
2018-Feb-15 05:00N 43°14' E 005°18'7919.0
2018-Feb-15 00:51N 43°01' E 007°05'918.6
2018-Feb-15 00:24N 43°01' E 007°16'7918.4
2018-Feb-14 20:07N 43°04' E 009°04'218.7
2018-Feb-14 20:01N 43°04' E 009°07'1318.3
2018-Feb-14 19:17N 43°04' E 009°25'7 0.5
2018-Feb-14 04:28N 42°60' E 009°32'918.7
2018-Feb-14 04:00N 43°04' E 009°22'17719.6
2018-Feb-13 18:58N 43°11' E 005°19'917.7
2018-Feb-13 18:26N 43°20' E 005°18'2 4.6
2018-Feb-13 18:00N 43°20' E 005°21'0 0.0
2018-Feb-13 17:30N 43°20' E 005°21'0 0.0
2018-Feb-13 17:00N 43°20' E 005°21'0 0.0
2018-Feb-13 16:30N 43°20' E 005°21'0 0.0
2018-Feb-13 16:00N 43°20' E 005°21'0 0.0
2018-Feb-13 15:30N 43°20' E 005°21'0 0.0
2018-Feb-13 15:00N 43°20' E 005°21'0 0.0
2018-Feb-13 14:30N 43°20' E 005°21'0 0.0
2018-Feb-13 14:00N 43°20' E 005°21'0 0.0
2018-Feb-13 13:30N 43°20' E 005°21'0 0.0
2018-Feb-13 12:58N 43°20' E 005°21'0 0.0
2018-Feb-13 12:29N 43°20' E 005°21'0 0.0
2018-Feb-13 11:59N 43°20' E 005°21'0 0.0
2018-Feb-13 11:26N 43°20' E 005°21'0 0.0
2018-Feb-13 11:00N 43°20' E 005°21'0 0.0
2018-Feb-13 10:30N 43°20' E 005°21'0 0.0
2018-Feb-13 09:59N 43°20' E 005°21'0 0.0
2018-Feb-13 09:30N 43°20' E 005°21'0 0.0
2018-Feb-13 09:00N 43°20' E 005°21'  
Track history (hours):
 
Tides and Currents Weather Stations Pressure Air Temp Water Temp Dewpoint Dewpoint Depression Visibility Wind Speed Wind Dir Waves Ship Positions

Paglia Orba

Last reported at 2018-Feb-23 08:39 UTC. Time now 2018-Feb-23 10:51 UTC.
Position N 43°18' E 005°22'.

Length 172 m; beam 31 m.

Type: Passenger vessel. MMSI: 227184000.

Date/timePositionNaut miles runAvg speedWind from/ knotsBaromVisibWave heightAir tempDewpointWater temp
2018-Feb-23 08:39N 43°18' E 005°22'0 0.0
2018-Feb-23 08:29N 43°18' E 005°22'0 0.0
2018-Feb-23 07:57N 43°18' E 005°22'0 0.0
2018-Feb-23 07:27N 43°18' E 005°22'0 0.0
2018-Feb-23 06:59N 43°18' E 005°22'0 0.0
2018-Feb-23 06:28N 43°18' E 005°22'0 0.0
2018-Feb-23 06:00N 43°18' E 005°22'3 6.3
2018-Feb-23 05:30N 43°16' E 005°19'7917.7
2018-Feb-23 01:01N 42°59' E 007°05'018.7
2018-Feb-23 01:00N 42°59' E 007°05'5 0.2
2018-Feb-21 23:57N 42°60' E 007°12'8218.7
2018-Feb-21 19:33N 43°10' E 005°20'119.9
2018-Feb-21 19:30N 43°11' E 005°19'714.7
2018-Feb-21 19:00N 43°18' E 005°22'0 0.0
2018-Feb-21 06:35N 43°18' E 005°22'0 0.0
2018-Feb-21 06:26N 43°18' E 005°22'0 0.5
2018-Feb-21 06:00N 43°18' E 005°22'5 9.0
2018-Feb-21 05:30N 43°14' E 005°18'8018.3
2018-Feb-21 01:09N 42°58' E 007°05'9018.3
2018-Feb-20 20:14N 43°04' E 009°08'13 0.8
2018-Feb-20 04:52N 43°04' E 009°25'9619.9
2018-Feb-20 00:04N 42°58' E 007°15'219.6
2018-Feb-19 23:57N 42°58' E 007°12'8518.7
2018-Feb-19 19:25N 43°13' E 005°18'716.9
2018-Feb-19 19:00N 43°20' E 005°18'2 3.9
2018-Feb-19 18:30N 43°20' E 005°21'0 0.0
2018-Feb-19 18:01N 43°20' E 005°21'0 0.0
2018-Feb-19 17:30N 43°20' E 005°21'0 0.0
2018-Feb-19 17:00N 43°20' E 005°21'0 0.0
2018-Feb-19 16:30N 43°20' E 005°21'0 0.0
2018-Feb-19 16:00N 43°20' E 005°21'0 0.0
2018-Feb-19 15:30N 43°20' E 005°21'0 0.0
2018-Feb-19 15:00N 43°20' E 005°21'0 0.0
2018-Feb-19 14:30N 43°20' E 005°21'0 0.0
2018-Feb-19 14:00N 43°20' E 005°21'0 0.0
2018-Feb-19 13:30N 43°20' E 005°21'0 0.0
2018-Feb-19 13:00N 43°20' E 005°21'0 0.0
2018-Feb-19 12:30N 43°20' E 005°21'0 0.0
2018-Feb-19 12:00N 43°20' E 005°21'0 0.0
2018-Feb-19 11:30N 43°20' E 005°21'0 0.0
2018-Feb-19 11:00N 43°20' E 005°21'0 0.0
2018-Feb-19 10:30N 43°20' E 005°21'0 0.0
2018-Feb-19 10:01N 43°20' E 005°21'0 0.0
2018-Feb-19 09:30N 43°20' E 005°21'0 0.0
2018-Feb-19 09:00N 43°20' E 005°21'0 0.0
2018-Feb-19 08:30N 43°20' E 005°21'0 0.0
2018-Feb-19 08:00N 43°20' E 005°21'0 0.0
2018-Feb-19 07:30N 43°20' E 005°21'0 0.0
2018-Feb-19 07:00N 43°20' E 005°21'0 0.0
2018-Feb-19 06:30N 43°20' E 005°21'0 0.0
2018-Feb-19 06:00N 43°20' E 005°21'1 2.6
2018-Feb-19 05:30N 43°19' E 005°19'8116.7
2018-Feb-19 00:38N 42°60' E 007°08'319.5
2018-Feb-19 00:29N 42°60' E 007°12'8419.1
2018-Feb-18 20:05N 43°04' E 009°06'219.6
2018-Feb-18 20:00N 43°04' E 009°08'1319.3
2018-Feb-18 19:21N 43°04' E 009°26'97 5.0
2018-Feb-17 23:50N 42°59' E 007°13'8517.3
2018-Feb-17 18:55N 43°13' E 005°18'715.8
2018-Feb-17 18:30N 43°20' E 005°18'2 4.3
2018-Feb-17 18:00N 43°20' E 005°21'0 0.0
2018-Feb-17 17:30N 43°20' E 005°21'0 0.0
2018-Feb-17 17:00N 43°20' E 005°21'0 0.0
2018-Feb-17 16:28N 43°20' E 005°21'0 0.0
2018-Feb-17 16:00N 43°20' E 005°21'0 0.0
2018-Feb-17 15:30N 43°20' E 005°21'0 0.0
2018-Feb-17 15:00N 43°20' E 005°21'0 0.0
2018-Feb-17 14:30N 43°20' E 005°21'0 0.0
2018-Feb-17 14:00N 43°20' E 005°21'0 0.0
2018-Feb-17 13:31N 43°20' E 005°21'0 0.0
2018-Feb-17 13:01N 43°20' E 005°21'0 0.0
2018-Feb-17 12:31N 43°20' E 005°21'0 0.0
2018-Feb-17 12:01N 43°20' E 005°21'0 0.0
2018-Feb-17 11:30N 43°20' E 005°21'0 0.0
2018-Feb-17 11:00N 43°20' E 005°21'0 0.0
2018-Feb-17 10:31N 43°20' E 005°21'0 0.0
2018-Feb-17 10:01N 43°20' E 005°21'0 0.0
2018-Feb-17 09:31N 43°20' E 005°21'0 0.0
2018-Feb-17 09:00N 43°20' E 005°21'0 0.0
2018-Feb-17 08:31N 43°20' E 005°21'0 0.0
2018-Feb-17 08:01N 43°20' E 005°21'0 0.0
2018-Feb-17 07:31N 43°20' E 005°21'0 0.0
2018-Feb-17 07:01N 43°20' E 005°21'0 0.0
2018-Feb-17 06:31N 43°20' E 005°21'0 0.0
2018-Feb-17 06:00N 43°20' E 005°21'2 4.0
2018-Feb-17 05:30N 43°21' E 005°18'815.1
2018-Feb-17 04:59N 43°13' E 005°18'8118.3
2018-Feb-17 00:34N 42°60' E 007°07'8718.6
2018-Feb-16 19:53N 43°04' E 009°06'83 4.1
2018-Feb-15 23:32N 42°58' E 007°13'220.0
2018-Feb-15 23:26N 42°58' E 007°10'8319.5
2018-Feb-15 19:11N 43°12' E 005°19'420.8
2018-Feb-15 19:00N 43°15' E 005°16'611.4
2018-Feb-15 18:30N 43°20' E 005°20'1 1.1
2018-Feb-15 18:00N 43°20' E 005°21'0 0.0
2018-Feb-15 17:28N 43°20' E 005°21'0 0.0
2018-Feb-15 16:59N 43°20' E 005°21'0 0.0
2018-Feb-15 16:30N 43°20' E 005°21'0 0.0
2018-Feb-15 10:04N 43°20' E 005°21'0 0.0
2018-Feb-15 10:01N 43°20' E 005°21'0 0.0
2018-Feb-15 09:30N 43°20' E 005°21'0 0.0
2018-Feb-15 09:00N 43°20' E 005°21'0 0.0
2018-Feb-15 08:29N 43°20' E 005°21'0 0.0
2018-Feb-15 08:00N 43°20' E 005°21'0 0.0
2018-Feb-15 07:31N 43°20' E 005°21'0 0.0
2018-Feb-15 07:01N 43°20' E 005°21'0 0.0
2018-Feb-15 06:30N 43°20' E 005°21'0 0.0
2018-Feb-15 06:01N 43°20' E 005°21'2 4.2
2018-Feb-15 05:30N 43°21' E 005°18'714.6
2018-Feb-15 05:00N 43°14' E 005°18'7919.0
2018-Feb-15 00:51N 43°01' E 007°05'918.6
2018-Feb-15 00:24N 43°01' E 007°16'7918.4
2018-Feb-14 20:07N 43°04' E 009°04'218.7
2018-Feb-14 20:01N 43°04' E 009°07'1318.3
2018-Feb-14 19:17N 43°04' E 009°25'7 0.5
2018-Feb-14 04:28N 42°60' E 009°32'918.7
2018-Feb-14 04:00N 43°04' E 009°22'17719.6
2018-Feb-13 18:58N 43°11' E 005°19'917.7
2018-Feb-13 18:26N 43°20' E 005°18'2 4.6
2018-Feb-13 18:00N 43°20' E 005°21'0 0.0
2018-Feb-13 17:30N 43°20' E 005°21'0 0.0
2018-Feb-13 17:00N 43°20' E 005°21'0 0.0
2018-Feb-13 16:30N 43°20' E 005°21'0 0.0
2018-Feb-13 16:00N 43°20' E 005°21'0 0.0
2018-Feb-13 15:30N 43°20' E 005°21'0 0.0
2018-Feb-13 15:00N 43°20' E 005°21'0 0.0
2018-Feb-13 14:30N 43°20' E 005°21'0 0.0
2018-Feb-13 14:00N 43°20' E 005°21'0 0.0
2018-Feb-13 13:30N 43°20' E 005°21'0 0.0
2018-Feb-13 12:58N 43°20' E 005°21'0 0.0
2018-Feb-13 12:29N 43°20' E 005°21'0 0.0
2018-Feb-13 11:59N 43°20' E 005°21'0 0.0
2018-Feb-13 11:26N 43°20' E 005°21'0 0.0
2018-Feb-13 11:00N 43°20' E 005°21'0 0.0
2018-Feb-13 10:30N 43°20' E 005°21'0 0.0
2018-Feb-13 09:59N 43°20' E 005°21'0 0.0
2018-Feb-13 09:30N 43°20' E 005°21'0 0.0
2018-Feb-13 09:00N 43°20' E 005°21'  

Dump ship's entire track history